Time;durP1;ratioP1;P1;durP2;ratioP2;P2;SDS_P1;SDS_P2;PMS_P1;PMS_P2;Temp;Humidity;BMP_temperature;BMP_pressure;BME280_temperature;BME280_humidity;BME280_pressure;Samples;Min_cycle;Max_cycle;Signal;HPM_P1;HPM_P2
2021/10/20 00:01:15;;;;;;;14.90;13.50;;;;;;;;;;5059865;28;20844;-74
2021/10/20 00:03:42;;;;;;;12.90;11.60;;;;;;;;;;5059265;28;20222;-73
2021/10/20 00:06:08;;;;;;;13.70;12.17;;;;;;;;;;5059372;28;20230;-73
2021/10/20 00:08:35;;;;;;;13.93;12.63;;;;;;;;;;5060542;28;20746;-73
2021/10/20 00:11:01;;;;;;;14.83;11.80;;;;;;;;;;5060361;28;20218;-73
2021/10/20 00:13:28;;;;;;;12.63;11.33;;;;;;;;;;5059439;28;20299;-73
2021/10/20 00:15:55;;;;;;;12.77;11.47;;;;;;;;;;5060736;28;20274;-74
2021/10/20 00:18:23;;;;;;;13.30;11.93;;;;;;;;;;5061898;28;20213;-73
2021/10/20 00:20:51;;;;;;;13.50;12.20;;;;;;;;;;5060457;28;20254;-73
2021/10/20 00:23:19;;;;;;;13.20;11.83;;;;;;;;;;5060381;28;20228;-73
2021/10/20 00:25:46;;;;;;;15.10;13.60;;;;;;;;;;5061045;28;20214;-73
2021/10/20 00:28:13;;;;;;;12.83;11.63;;;;;;;;;;5060108;28;20210;-73
2021/10/20 00:30:39;;;;;;;14.37;10.83;;;;;;;;;;5059389;28;20649;-73
2021/10/20 00:33:06;;;;;;;12.20;10.43;;;;;;;;;;5061392;28;20661;-73
2021/10/20 00:35:34;;;;;;;11.50;10.40;;;;;;;;;;5057952;28;20296;-73
2021/10/20 00:38:00;;;;;;;12.03;10.83;;;;;;;;;;5058514;28;20218;-73
2021/10/20 00:40:26;;;;;;;13.27;11.33;;;;;;;;;;5059433;28;20233;-73
2021/10/20 00:42:53;;;;;;;12.20;11.00;;;;;;;;;;5057939;28;20257;-73
2021/10/20 00:45:19;;;;;;;11.07;10.03;;;;;;;;;;5056741;28;20275;-73
2021/10/20 00:47:46;;;;;;;10.77;9.67;;;;;;;;;;5056562;28;20273;-73
2021/10/20 00:50:14;;;;;;;12.03;10.83;;;;;;;;;;5057529;28;20230;-73
2021/10/20 00:52:42;;;;;;;12.07;10.87;;;;;;;;;;5055554;28;20288;-73
2021/10/20 00:55:10;;;;;;;12.70;10.27;;;;;;;;;;5059162;28;20233;-73
2021/10/20 00:57:36;;;;;;;12.57;10.37;;;;;;;;;;5058426;28;20209;-73
2021/10/20 01:00:06;;;;;;;10.70;9.67;;;;;;;;;;5058011;28;20230;-73
2021/10/20 01:02:33;;;;;;;12.13;10.63;;;;;;;;;;5057113;28;20215;-73
2021/10/20 01:05:00;;;;;;;10.77;8.60;;;;;;;;;;5056691;28;20235;-73
2021/10/20 01:07:26;;;;;;;9.87;8.93;;;;;;;;;;5057752;28;20215;-73
2021/10/20 01:09:55;;;;;;;10.83;9.20;;;;;;;;;;5054120;28;20800;-73
2021/10/20 01:12:22;;;;;;;9.87;8.90;;;;;;;;;;5056648;28;20216;-73
2021/10/20 01:14:48;;;;;;;11.80;10.07;;;;;;;;;;5057054;28;20307;-73
2021/10/20 01:17:14;;;;;;;9.37;8.40;;;;;;;;;;5055218;28;20280;-74
2021/10/20 01:19:43;;;;;;;10.47;8.70;;;;;;;;;;5056436;28;20826;-74
2021/10/20 01:22:11;;;;;;;10.27;9.27;;;;;;;;;;5055392;28;20280;-73
2021/10/20 01:24:39;;;;;;;9.60;8.70;;;;;;;;;;5054893;28;20229;-73
2021/10/20 01:27:06;;;;;;;9.47;8.57;;;;;;;;;;5056513;28;20288;-73
2021/10/20 01:29:32;;;;;;;9.70;8.80;;;;;;;;;;5056534;28;20215;-72
2021/10/20 01:32:01;;;;;;;9.67;8.67;;;;;;;;;;5055284;28;20256;-73
2021/10/20 01:34:28;;;;;;;10.47;9.23;;;;;;;;;;5056909;28;20234;-72
2021/10/20 01:36:56;;;;;;;9.87;8.83;;;;;;;;;;5056320;28;20214;-73
2021/10/20 01:39:24;;;;;;;9.70;8.70;;;;;;;;;;5057238;28;20724;-73
2021/10/20 01:41:50;;;;;;;9.70;8.77;;;;;;;;;;5054512;28;20207;-73
2021/10/20 01:44:17;;;;;;;9.77;8.83;;;;;;;;;;5055026;28;20253;-73
2021/10/20 01:46:44;;;;;;;9.50;8.50;;;;;;;;;;5054976;28;20240;-73
2021/10/20 01:49:10;;;;;;;10.60;8.77;;;;;;;;;;5056365;28;20282;-73
2021/10/20 01:51:37;;;;;;;9.90;8.23;;;;;;;;;;5055137;28;20606;-73
2021/10/20 01:54:04;;;;;;;9.43;8.57;;;;;;;;;;5056788;28;20230;-73
2021/10/20 01:56:31;;;;;;;9.53;8.57;;;;;;;;;;5055389;28;20220;-73
2021/10/20 01:58:58;;;;;;;9.83;8.83;;;;;;;;;;5052728;28;20210;-73
2021/10/20 02:01:25;;;;;;;10.13;8.57;;;;;;;;;;5053353;28;20668;-73
2021/10/20 02:03:51;;;;;;;9.43;8.53;;;;;;;;;;5052684;28;20272;-73
2021/10/20 02:06:20;;;;;;;9.37;8.40;;;;;;;;;;5056632;28;20234;-73
2021/10/20 02:08:47;;;;;;;9.20;8.20;;;;;;;;;;5054976;28;20230;-73
2021/10/20 02:11:15;;;;;;;11.83;8.70;;;;;;;;;;5053190;28;20210;-73
2021/10/20 02:13:43;;;;;;;10.87;9.03;;;;;;;;;;5053413;28;20297;-73
2021/10/20 02:16:09;;;;;;;8.83;7.77;;;;;;;;;;5056486;28;20284;-73
2021/10/20 02:18:36;;;;;;;10.63;8.93;;;;;;;;;;5055639;28;20272;-73
2021/10/20 02:21:02;;;;;;;10.23;8.73;;;;;;;;;;5055247;28;20280;-73
2021/10/20 02:23:29;;;;;;;9.50;8.50;;;;;;;;;;5053865;28;20242;-73
2021/10/20 02:25:56;;;;;;;10.17;8.80;;;;;;;;;;5054188;28;20256;-73
2021/10/20 02:28:22;;;;;;;9.60;8.57;;;;;;;;;;5052729;28;20233;-73
2021/10/20 02:30:50;;;;;;;10.20;8.67;;;;;;;;;;5053832;28;20605;-74
2021/10/20 02:33:17;;;;;;;10.83;9.20;;;;;;;;;;5055109;28;20210;-73
2021/10/20 02:35:43;;;;;;;9.80;8.87;;;;;;;;;;5055559;28;20279;-74
2021/10/20 02:38:10;;;;;;;10.07;9.00;;;;;;;;;;5052541;28;20234;-74
2021/10/20 02:40:36;;;;;;;10.87;9.00;;;;;;;;;;5054552;28;20315;-73
2021/10/20 02:43:02;;;;;;;10.40;9.37;;;;;;;;;;5052883;28;20214;-74
2021/10/20 02:45:29;;;;;;;9.53;8.63;;;;;;;;;;5053672;28;20219;-73
2021/10/20 02:47:57;;;;;;;12.00;9.47;;;;;;;;;;5054137;28;20267;-73
2021/10/20 02:50:28;;;;;;;14.60;9.93;;;;;;;;;;5052560;28;20230;-73
2021/10/20 02:52:54;;;;;;;11.03;8.90;;;;;;;;;;5053915;28;20206;-74
2021/10/20 02:55:20;;;;;;;12.20;9.43;;;;;;;;;;5053659;28;20790;-74
2021/10/20 02:57:47;;;;;;;10.40;9.40;;;;;;;;;;5052850;28;20727;-73
2021/10/20 03:00:14;;;;;;;10.97;9.97;;;;;;;;;;5056172;28;20300;-73
2021/10/20 03:02:41;;;;;;;12.83;9.60;;;;;;;;;;5055401;28;20263;-74
2021/10/20 03:05:09;;;;;;;9.77;8.23;;;;;;;;;;5055767;28;20614;-73
2021/10/20 03:07:36;;;;;;;12.70;10.67;;;;;;;;;;5053948;28;20218;-73
2021/10/20 03:10:04;;;;;;;11.47;9.77;;;;;;;;;;5054014;28;20223;-73
2021/10/20 03:12:30;;;;;;;11.97;10.70;;;;;;;;;;5052817;28;20219;-73
2021/10/20 03:14:56;;;;;;;10.93;9.63;;;;;;;;;;5055126;28;20246;-73
2021/10/20 03:17:24;;;;;;;12.10;10.70;;;;;;;;;;5053894;28;20218;-74
2021/10/20 03:19:51;;;;;;;13.07;10.87;;;;;;;;;;5053138;28;20241;-74
2021/10/20 03:22:18;;;;;;;12.37;10.80;;;;;;;;;;5054593;28;20261;-74
2021/10/20 03:24:45;;;;;;;10.43;9.40;;;;;;;;;;5054075;28;20230;-74
2021/10/20 03:27:11;;;;;;;15.87;10.30;;;;;;;;;;5054348;28;20524;-74
2021/10/20 03:29:37;;;;;;;12.27;11.03;;;;;;;;;;5054787;28;20263;-74
2021/10/20 03:32:05;;;;;;;14.83;10.17;;;;;;;;;;5050740;28;20256;-74
2021/10/20 03:34:31;;;;;;;11.80;10.27;;;;;;;;;;5053973;28;20230;-74
2021/10/20 03:36:57;;;;;;;13.50;9.57;;;;;;;;;;5053886;28;20214;-73
2021/10/20 03:39:25;;;;;;;12.10;10.77;;;;;;;;;;5053378;28;20243;-74
2021/10/20 03:41:52;;;;;;;14.63;10.40;;;;;;;;;;5054524;28;20241;-73
2021/10/20 03:44:18;;;;;;;10.37;9.00;;;;;;;;;;5052874;28;20218;-73
2021/10/20 03:46:44;;;;;;;12.70;10.60;;;;;;;;;;5053032;28;20215;-74
2021/10/20 03:49:11;;;;;;;12.43;11.07;;;;;;;;;;5054474;28;20226;-74
2021/10/20 03:51:37;;;;;;;12.70;10.67;;;;;;;;;;5052462;28;20819;-74
2021/10/20 03:54:04;;;;;;;11.23;10.03;;;;;;;;;;5054026;28;20239;-74
2021/10/20 03:56:31;;;;;;;11.47;10.37;;;;;;;;;;5052959;28;20253;-74
2021/10/20 03:58:58;;;;;;;12.43;10.77;;;;;;;;;;5054111;28;20218;-73
2021/10/20 04:01:24;;;;;;;13.23;10.30;;;;;;;;;;5054255;28;20240;-74
2021/10/20 04:03:50;;;;;;;13.70;10.27;;;;;;;;;;5053462;28;20226;-74
2021/10/20 04:06:17;;;;;;;14.93;10.00;;;;;;;;;;5052564;28;20767;-73
2021/10/20 04:08:43;;;;;;;14.10;11.47;;;;;;;;;;5053468;28;20226;-73
2021/10/20 04:11:10;;;;;;;11.90;10.47;;;;;;;;;;5054018;28;21125;-74
2021/10/20 04:13:37;;;;;;;12.00;9.77;;;;;;;;;;5055288;28;20278;-74
2021/10/20 04:16:04;;;;;;;13.07;10.07;;;;;;;;;;5053764;28;20218;-74
2021/10/20 04:18:31;;;;;;;11.87;10.43;;;;;;;;;;5052913;28;20214;-74
2021/10/20 04:20:57;;;;;;;11.90;10.70;;;;;;;;;;5059615;28;20226;-74
2021/10/20 04:23:23;;;;;;;14.87;11.17;;;;;;;;;;5056313;28;20287;-73
2021/10/20 04:25:50;;;;;;;13.80;10.40;;;;;;;;;;5058824;28;20218;-74
2021/10/20 04:28:16;;;;;;;11.57;10.33;;;;;;;;;;5057359;28;20207;-74
2021/10/20 04:30:44;;;;;;;13.33;11.77;;;;;;;;;;5056280;28;20267;-73
2021/10/20 04:33:10;;;;;;;15.10;11.27;;;;;;;;;;5057803;28;20206;-73
2021/10/20 04:35:37;;;;;;;14.80;11.13;;;;;;;;;;5056092;28;20281;-74
2021/10/20 04:38:03;;;;;;;11.20;10.00;;;;;;;;;;5055353;28;20206;-73
2021/10/20 04:40:30;;;;;;;13.37;10.63;;;;;;;;;;5056988;28;20235;-74
2021/10/20 04:42:57;;;;;;;12.43;11.13;;;;;;;;;;5058235;28;20282;-73
2021/10/20 04:45:23;;;;;;;12.97;11.67;;;;;;;;;;5056878;28;20990;-74
2021/10/20 04:47:51;;;;;;;12.57;10.70;;;;;;;;;;5054299;28;20268;-73
2021/10/20 04:50:19;;;;;;;12.47;9.87;;;;;;;;;;5056738;28;20288;-73
2021/10/20 04:52:45;;;;;;;12.33;11.13;;;;;;;;;;5056528;28;20585;-73
2021/10/20 04:55:12;;;;;;;12.60;11.40;;;;;;;;;;5057650;28;20222;-73
2021/10/20 04:57:38;;;;;;;14.07;10.97;;;;;;;;;;5057763;28;20214;-73
2021/10/20 05:00:07;;;;;;;16.50;11.93;;;;;;;;;;5057814;28;20255;-73
2021/10/20 05:02:35;;;;;;;12.93;11.40;;;;;;;;;;5057060;28;20237;-73
2021/10/20 05:05:04;;;;;;;12.73;10.43;;;;;;;;;;5058023;28;20669;-73
2021/10/20 05:07:31;;;;;;;14.03;11.60;;;;;;;;;;5054192;28;20210;-74
2021/10/20 05:09:57;;;;;;;13.47;10.57;;;;;;;;;;5056562;28;20277;-74
2021/10/20 05:12:24;;;;;;;14.23;12.67;;;;;;;;;;5057147;28;20210;-73
2021/10/20 05:14:50;;;;;;;13.47;11.40;;;;;;;;;;5056039;28;20295;-73
2021/10/20 05:17:16;;;;;;;12.63;11.37;;;;;;;;;;5054041;28;20868;-73
2021/10/20 05:19:43;;;;;;;14.50;12.60;;;;;;;;;;5056633;28;20242;-75
2021/10/20 05:22:11;;;;;;;13.57;12.17;;;;;;;;;;5056036;28;21064;-74
2021/10/20 05:24:37;;;;;;;16.20;12.37;;;;;;;;;;5055570;28;20226;-74
2021/10/20 05:27:04;;;;;;;15.70;12.27;;;;;;;;;;5055503;28;21188;-73
2021/10/20 05:29:32;;;;;;;16.13;13.00;;;;;;;;;;5057139;28;20208;-73
2021/10/20 05:31:59;;;;;;;14.53;13.07;;;;;;;;;;5053582;28;20854;-73
2021/10/20 05:34:26;;;;;;;15.80;12.53;;;;;;;;;;5055145;28;20231;-73
2021/10/20 05:36:52;;;;;;;14.10;12.57;;;;;;;;;;5056745;28;20206;-74
2021/10/20 05:39:20;;;;;;;17.53;13.63;;;;;;;;;;5054506;28;20276;-73
2021/10/20 05:41:46;;;;;;;16.50;14.80;;;;;;;;;;5054638;28;20307;-74
2021/10/20 05:44:14;;;;;;;15.53;13.37;;;;;;;;;;5055815;28;20281;-74
2021/10/20 05:46:40;;;;;;;15.43;13.80;;;;;;;;;;5055430;28;20215;-73
2021/10/20 05:49:07;;;;;;;15.83;14.27;;;;;;;;;;5054843;28;20272;-73
2021/10/20 05:51:33;;;;;;;15.07;13.47;;;;;;;;;;5055905;28;20243;-73
2021/10/20 05:54:00;;;;;;;17.40;14.13;;;;;;;;;;5055739;28;20249;-73
2021/10/20 05:56:28;;;;;;;16.47;14.67;;;;;;;;;;5056285;28;20301;-72
2021/10/20 05:58:54;;;;;;;15.53;13.47;;;;;;;;;;5052908;28;20222;-73
2021/10/20 06:01:23;;;;;;;17.00;14.43;;;;;;;;;;5054639;28;20292;-73
2021/10/20 06:03:49;;;;;;;19.50;15.03;;;;;;;;;;5054643;28;20343;-73
2021/10/20 06:06:16;;;;;;;18.27;14.70;;;;;;;;;;5054537;28;20340;-73
2021/10/20 06:08:42;;;;;;;15.20;13.23;;;;;;;;;;5055083;28;20281;-73
2021/10/20 06:11:09;;;;;;;17.30;12.77;;;;;;;;;;5054295;28;20276;-73
2021/10/20 06:13:36;;;;;;;14.60;12.63;;;;;;;;;;5053100;28;20234;-73
2021/10/20 06:16:03;;;;;;;15.73;14.13;;;;;;;;;;5055468;28;20255;-73
2021/10/20 06:18:29;;;;;;;13.67;11.83;;;;;;;;;;5052510;28;20211;-73
2021/10/20 06:20:57;;;;;;;19.00;14.03;;;;;;;;;;5053296;28;20238;-74
2021/10/20 06:23:23;;;;;;;15.77;14.03;;;;;;;;;;5053762;28;20661;-73
2021/10/20 06:25:50;;;;;;;17.53;12.67;;;;;;;;;;5053553;28;20215;-73
2021/10/20 06:28:16;;;;;;;16.47;13.20;;;;;;;;;;5052523;28;20206;-73
2021/10/20 06:30:44;;;;;;;15.97;13.13;;;;;;;;;;5054724;28;20202;-73
2021/10/20 06:33:10;;;;;;;13.70;12.30;;;;;;;;;;5052466;28;20803;-73
2021/10/20 06:35:37;;;;;;;16.10;12.63;;;;;;;;;;5052517;28;20230;-73
2021/10/20 06:38:03;;;;;;;12.50;10.60;;;;;;;;;;5051909;28;20215;-73
2021/10/20 06:40:31;;;;;;;14.13;11.60;;;;;;;;;;5051583;28;20216;-73
2021/10/20 06:42:57;;;;;;;13.33;11.73;;;;;;;;;;5055252;28;20226;-73
2021/10/20 06:45:24;;;;;;;12.87;11.57;;;;;;;;;;5053074;28;20736;-73
2021/10/20 06:47:52;;;;;;;14.07;11.10;;;;;;;;;;5052311;28;20218;-73
2021/10/20 06:50:19;;;;;;;52.70;16.30;;;;;;;;;;5053588;28;20265;-73
2021/10/20 06:52:45;;;;;;;14.67;11.67;;;;;;;;;;5051609;28;20256;-73
2021/10/20 06:55:13;;;;;;;14.10;11.83;;;;;;;;;;5051243;28;20275;-73
2021/10/20 06:57:41;;;;;;;12.07;10.77;;;;;;;;;;5051475;28;20624;-72
2021/10/20 07:00:09;;;;;;;14.20;11.50;;;;;;;;;;5052301;28;20215;-73
2021/10/20 07:02:36;;;;;;;14.60;11.60;;;;;;;;;;5051394;28;20238;-73
2021/10/20 07:05:04;;;;;;;13.83;11.67;;;;;;;;;;5054536;28;20263;-73
2021/10/20 07:07:31;;;;;;;13.77;12.07;;;;;;;;;;5053098;28;20215;-72
2021/10/20 07:09:57;;;;;;;15.77;11.40;;;;;;;;;;5052506;28;20238;-72
2021/10/20 07:12:24;;;;;;;12.33;9.87;;;;;;;;;;5052843;28;20214;-73
2021/10/20 07:14:51;;;;;;;14.93;10.13;;;;;;;;;;5052742;28;20236;-73
2021/10/20 07:17:17;;;;;;;10.87;9.43;;;;;;;;;;5051058;28;20214;-73
2021/10/20 07:19:43;;;;;;;11.53;10.33;;;;;;;;;;5051709;28;20276;-74
2021/10/20 07:22:11;;;;;;;11.53;10.13;;;;;;;;;;5052195;28;20278;-73
2021/10/20 07:24:38;;;;;;;10.80;9.40;;;;;;;;;;5052280;28;20226;-74
2021/10/20 07:27:04;;;;;;;10.73;9.47;;;;;;;;;;5050563;28;20202;-74
2021/10/20 07:29:31;;;;;;;13.23;9.83;;;;;;;;;;5051437;28;20240;-75
2021/10/20 07:31:58;;;;;;;10.83;9.73;;;;;;;;;;5051760;28;20218;-75
2021/10/20 07:34:24;;;;;;;11.50;8.70;;;;;;;;;;5052056;28;20588;-74
2021/10/20 07:36:51;;;;;;;10.40;8.97;;;;;;;;;;5051483;28;20213;-74
2021/10/20 07:39:19;;;;;;;12.33;9.93;;;;;;;;;;5051205;28;20306;-73
2021/10/20 07:41:45;;;;;;;9.93;8.23;;;;;;;;;;5052871;28;20640;-74
2021/10/20 07:44:12;;;;;;;11.20;8.63;;;;;;;;;;5052786;28;20203;-75
2021/10/20 07:46:38;;;;;;;11.40;9.13;;;;;;;;;;5053057;28;20753;-75
2021/10/20 07:49:05;;;;;;;10.17;8.97;;;;;;;;;;5051202;28;20280;-74
2021/10/20 07:51:32;;;;;;;10.93;9.87;;;;;;;;;;5053235;28;20219;-74
2021/10/20 07:53:58;;;;;;;10.23;8.60;;;;;;;;;;5053281;28;20227;-74
2021/10/20 07:56:32;;;;;;;9.63;8.73;;;;;;;;;;5054490;28;20210;-74
2021/10/20 07:58:58;;;;;;;9.97;9.00;;;;;;;;;;5056092;28;20213;-74
2021/10/20 08:01:25;;;;;;;10.00;8.77;;;;;;;;;;5054058;28;20217;-74
2021/10/20 08:03:51;;;;;;;10.33;9.33;;;;;;;;;;5056564;28;20234;-73
2021/10/20 08:06:18;;;;;;;10.53;9.43;;;;;;;;;;5054254;28;20714;-74
2021/10/20 08:08:44;;;;;;;13.17;9.70;;;;;;;;;;5055737;28;20286;-74
2021/10/20 08:11:11;;;;;;;9.43;8.40;;;;;;;;;;5054414;28;20209;-74
2021/10/20 08:13:38;;;;;;;11.27;9.77;;;;;;;;;;5053484;28;20771;-73
2021/10/20 08:16:05;;;;;;;9.73;8.83;;;;;;;;;;5056069;28;20210;-73
2021/10/20 08:18:32;;;;;;;13.13;10.07;;;;;;;;;;5053506;28;20237;-73
2021/10/20 08:20:58;;;;;;;10.33;9.33;;;;;;;;;;5054161;28;20206;-73
2021/10/20 08:23:26;;;;;;;11.77;8.90;;;;;;;;;;5054985;28;20304;-73
2021/10/20 08:25:53;;;;;;;12.97;8.60;;;;;;;;;;5053313;28;20568;-73
2021/10/20 08:28:19;;;;;;;12.40;9.57;;;;;;;;;;5054604;28;20211;-73
2021/10/20 08:30:47;;;;;;;11.63;9.60;;;;;;;;;;5056034;28;20268;-73
2021/10/20 08:33:16;;;;;;;11.57;9.33;;;;;;;;;;5052349;28;20587;-73
2021/10/20 08:35:42;;;;;;;10.63;8.87;;;;;;;;;;5053899;28;20227;-73
2021/10/20 08:38:09;;;;;;;11.30;10.17;;;;;;;;;;5052681;28;20218;-73
2021/10/20 08:40:37;;;;;;;13.37;10.40;;;;;;;;;;5052563;28;20217;-71
2021/10/20 08:43:05;;;;;;;11.43;10.03;;;;;;;;;;5055177;28;20277;-72
2021/10/20 08:45:32;;;;;;;13.30;10.37;;;;;;;;;;5054833;28;20218;-72
2021/10/20 08:48:00;;;;;;;10.83;9.27;;;;;;;;;;5054080;28;20225;-72
2021/10/20 08:50:29;;;;;;;14.00;10.90;;;;;;;;;;5052857;28;20237;-71
2021/10/20 08:52:56;;;;;;;11.80;9.43;;;;;;;;;;5055899;28;20214;-70
2021/10/20 08:55:23;;;;;;;12.03;9.93;;;;;;;;;;5056432;28;20276;-71
2021/10/20 08:57:52;;;;;;;11.73;10.63;;;;;;;;;;5054809;28;20217;-71
2021/10/20 09:00:19;;;;;;;12.63;10.37;;;;;;;;;;5054659;28;20241;-73
2021/10/20 09:02:47;;;;;;;36.80;12.87;;;;;;;;;;5053734;28;20248;-71
2021/10/20 09:05:17;;;;;;;10.87;9.77;;;;;;;;;;5051587;28;20589;-71
2021/10/20 09:07:45;;;;;;;10.40;9.33;;;;;;;;;;5052745;28;20214;-71
2021/10/20 09:10:13;;;;;;;11.27;10.17;;;;;;;;;;5054889;28;20293;-71
2021/10/20 09:12:41;;;;;;;10.70;9.70;;;;;;;;;;5054013;28;20326;-72
2021/10/20 09:15:09;;;;;;;11.37;10.10;;;;;;;;;;5052688;28;20312;-71
2021/10/20 09:17:54;;;;;;;11.63;10.43;;;;;;;;;;5053094;28;20299;-72
2021/10/20 09:20:25;;;;;;;11.20;9.83;;;;;;;;;;5054565;28;20332;-72
2021/10/20 09:22:57;;;;;;;10.77;9.70;;;;;;;;;;5054380;28;20223;-72
2021/10/20 09:25:24;;;;;;;11.67;10.67;;;;;;;;;;5053426;28;20222;-71
2021/10/20 09:27:51;;;;;;;10.63;9.63;;;;;;;;;;5052846;28;20222;-71
2021/10/20 09:30:18;;;;;;;10.87;9.87;;;;;;;;;;5052242;28;20252;-72
2021/10/20 09:32:45;;;;;;;10.67;9.60;;;;;;;;;;5052613;28;20823;-72
2021/10/20 09:35:13;;;;;;;11.10;10.10;;;;;;;;;;5053447;28;20232;-72
2021/10/20 09:37:42;;;;;;;14.03;11.17;;;;;;;;;;5052222;28;20387;-72
2021/10/20 09:40:11;;;;;;;12.03;10.93;;;;;;;;;;5054922;28;20227;-71
2021/10/20 09:42:45;;;;;;;10.73;9.73;;;;;;;;;;5056009;28;20679;-71
2021/10/20 09:45:14;;;;;;;11.77;10.63;;;;;;;;;;5053920;28;20320;-71
2021/10/20 09:47:41;;;;;;;12.17;11.03;;;;;;;;;;5053053;28;20238;-74
2021/10/20 09:50:08;;;;;;;11.93;10.93;;;;;;;;;;5054640;28;20286;-72
2021/10/20 09:52:46;;;;;;;11.77;10.13;;;;;;;;;;5054311;28;20216;-72
2021/10/20 09:55:16;;;;;;;12.60;11.40;;;;;;;;;;5054179;28;20233;-73
2021/10/20 09:57:43;;;;;;;13.50;10.80;;;;;;;;;;5054736;28;20215;-72
2021/10/20 10:00:11;;;;;;;12.90;11.67;;;;;;;;;;5053152;28;20215;-72
2021/10/20 10:02:37;;;;;;;12.77;11.47;;;;;;;;;;5054273;28;20227;-73
2021/10/20 10:05:04;;;;;;;12.23;11.07;;;;;;;;;;5054119;28;20235;-73
2021/10/20 10:07:31;;;;;;;13.17;12.07;;;;;;;;;;5053105;28;20230;-72
2021/10/20 10:09:59;;;;;;;13.20;12.10;;;;;;;;;;5053926;28;20232;-72
2021/10/20 10:12:28;;;;;;;12.10;10.97;;;;;;;;;;5053406;28;20209;-76
2021/10/20 10:14:58;;;;;;;12.17;10.97;;;;;;;;;;5052634;28;20662;-75
2021/10/20 10:17:27;;;;;;;12.33;11.20;;;;;;;;;;5050721;28;20298;-72
2021/10/20 10:19:53;;;;;;;12.27;11.23;;;;;;;;;;5054149;28;20250;-73
2021/10/20 10:22:22;;;;;;;13.27;11.97;;;;;;;;;;5053330;28;20314;-74
2021/10/20 10:24:49;;;;;;;11.37;10.30;;;;;;;;;;5051730;28;20347;-74
2021/10/20 10:27:17;;;;;;;12.97;11.67;;;;;;;;;;5053831;28;20215;-75
2021/10/20 10:29:48;;;;;;;12.30;11.17;;;;;;;;;;5051407;28;20229;-74
2021/10/20 10:32:18;;;;;;;13.53;12.17;;;;;;;;;;5049473;28;20298;-73
2021/10/20 10:34:46;;;;;;;11.87;10.77;;;;;;;;;;5053318;28;20232;-76
2021/10/20 10:37:23;;;;;;;10.97;9.97;;;;;;;;;;5052902;28;20264;-73
2021/10/20 10:39:50;;;;;;;11.63;10.47;;;;;;;;;;5054578;28;20236;-73
2021/10/20 10:42:18;;;;;;;10.50;9.60;;;;;;;;;;5052107;28;20281;-73
2021/10/20 10:44:47;;;;;;;10.53;9.60;;;;;;;;;;5051926;28;20685;-72
2021/10/20 10:49:57;;;;;;;11.23;10.10;;;;;;;;;;5050983;28;20314;-71
2021/10/20 10:52:32;;;;;;;11.70;10.20;;;;;;;;;;5052455;28;20270;-72
2021/10/20 10:55:08;;;;;;;10.53;9.43;;;;;;;;;;5055206;28;20232;-71
2021/10/20 10:57:42;;;;;;;9.80;8.80;;;;;;;;;;5053742;28;20221;-72
2021/10/20 11:00:11;;;;;;;8.73;7.97;;;;;;;;;;5051341;28;20222;-71
2021/10/20 11:02:46;;;;;;;10.10;9.03;;;;;;;;;;5052212;28;20230;-72
2021/10/20 11:05:13;;;;;;;9.90;8.60;;;;;;;;;;5050760;28;20282;-71
2021/10/20 11:07:44;;;;;;;9.60;8.70;;;;;;;;;;5052334;28;20293;-72
2021/10/20 11:10:11;;;;;;;9.93;8.43;;;;;;;;;;5051582;28;20221;-72
2021/10/20 11:12:39;;;;;;;8.27;7.47;;;;;;;;;;5051494;28;20258;-72
2021/10/20 11:15:06;;;;;;;9.30;8.00;;;;;;;;;;5052266;28;20353;-72
2021/10/20 11:17:33;;;;;;;8.80;7.20;;;;;;;;;;5051155;28;20894;-72
2021/10/20 11:20:05;;;;;;;8.43;6.50;;;;;;;;;;5051644;28;20655;-72
2021/10/20 11:22:33;;;;;;;9.63;7.67;;;;;;;;;;5052302;28;20285;-72
2021/10/20 11:25:02;;;;;;;8.77;6.93;;;;;;;;;;5056178;28;20310;-72
2021/10/20 11:27:29;;;;;;;8.70;7.20;;;;;;;;;;5054954;28;20717;-75
2021/10/20 11:29:57;;;;;;;8.57;6.70;;;;;;;;;;5053911;28;20225;-73
2021/10/20 11:32:24;;;;;;;10.20;6.77;;;;;;;;;;5053578;28;20215;-72
2021/10/20 11:34:51;;;;;;;11.33;7.47;;;;;;;;;;5053994;28;20237;-72
2021/10/20 11:37:20;;;;;;;12.30;7.00;;;;;;;;;;5052207;28;20209;-71
2021/10/20 11:39:55;;;;;;;11.00;7.43;;;;;;;;;;5052530;28;20221;-73
2021/10/20 11:42:23;;;;;;;11.63;7.40;;;;;;;;;;5051251;28;20246;-73
2021/10/20 11:44:50;;;;;;;11.67;7.37;;;;;;;;;;5052822;28;20303;-73
2021/10/20 11:47:18;;;;;;;7.73;6.70;;;;;;;;;;5050881;28;20247;-73
2021/10/20 11:49:47;;;;;;;9.40;7.53;;;;;;;;;;5052608;28;20241;-73
2021/10/20 11:52:15;;;;;;;9.57;7.33;;;;;;;;;;5055082;28;20248;-73
2021/10/20 11:54:42;;;;;;;8.53;6.73;;;;;;;;;;5053268;28;20224;-73
2021/10/20 11:57:09;;;;;;;8.70;6.63;;;;;;;;;;5051724;28;20212;-72
2021/10/20 11:59:37;;;;;;;12.30;7.27;;;;;;;;;;5051710;28;20282;-74
2021/10/20 12:02:05;;;;;;;8.00;6.93;;;;;;;;;;5052763;28;20227;-73
2021/10/20 12:04:32;;;;;;;7.57;6.70;;;;;;;;;;5051503;28;20518;-73
2021/10/20 12:07:01;;;;;;;11.03;6.53;;;;;;;;;;5051332;28;20209;-74
2021/10/20 12:09:29;;;;;;;8.97;7.60;;;;;;;;;;5052223;28;20230;-75
2021/10/20 12:11:57;;;;;;;7.83;6.80;;;;;;;;;;5049662;28;20241;-72
2021/10/20 12:14:24;;;;;;;9.33;7.87;;;;;;;;;;5051215;28;21051;-73
2021/10/20 12:16:51;;;;;;;8.57;6.80;;;;;;;;;;5048951;28;20807;-72
2021/10/20 12:19:21;;;;;;;9.20;7.00;;;;;;;;;;5050424;28;20229;-72
2021/10/20 12:21:49;;;;;;;10.17;7.40;;;;;;;;;;5052041;28;21237;-73
2021/10/20 12:24:18;;;;;;;9.00;7.03;;;;;;;;;;5049213;28;20522;-72
2021/10/20 12:26:45;;;;;;;10.03;6.90;;;;;;;;;;5051182;28;20217;-72
2021/10/20 12:29:13;;;;;;;8.30;6.47;;;;;;;;;;5049907;28;20211;-73
2021/10/20 12:31:40;;;;;;;28.47;9.07;;;;;;;;;;5052373;28;20201;-72
2021/10/20 12:34:08;;;;;;;8.87;6.47;;;;;;;;;;5051064;28;20744;-72
2021/10/20 12:36:36;;;;;;;11.13;6.93;;;;;;;;;;5051475;28;20620;-73
2021/10/20 12:39:05;;;;;;;8.67;6.23;;;;;;;;;;5052570;28;20275;-72
2021/10/20 12:41:34;;;;;;;13.47;7.17;;;;;;;;;;5054818;28;20209;-72
2021/10/20 12:44:02;;;;;;;11.53;6.50;;;;;;;;;;5054802;28;20232;-73
2021/10/20 12:46:30;;;;;;;8.47;6.83;;;;;;;;;;5054261;28;20214;-73
2021/10/20 12:48:58;;;;;;;7.57;6.40;;;;;;;;;;5055543;28;20698;-73
2021/10/20 12:51:26;;;;;;;8.70;7.50;;;;;;;;;;5054296;28;20248;-73
2021/10/20 12:53:58;;;;;;;9.90;7.87;;;;;;;;;;5057429;28;20684;-73
2021/10/20 12:56:28;;;;;;;11.70;7.53;;;;;;;;;;5055463;28;20296;-72
2021/10/20 12:59:04;;;;;;;8.63;6.90;;;;;;;;;;5055233;28;20258;-72
2021/10/20 13:01:31;;;;;;;10.43;6.33;;;;;;;;;;5054836;28;20655;-72
2021/10/20 13:03:57;;;;;;;9.43;6.77;;;;;;;;;;5055145;28;20311;-72
2021/10/20 13:06:24;;;;;;;7.37;5.63;;;;;;;;;;5053363;28;20245;-71
2021/10/20 13:08:50;;;;;;;12.63;4.63;;;;;;;;;;5055221;28;20796;-72
2021/10/20 13:11:17;;;;;;;8.37;4.43;;;;;;;;;;5052837;28;20216;-75
2021/10/20 13:13:44;;;;;;;7.10;4.80;;;;;;;;;;5053164;28;20249;-73
2021/10/20 13:16:11;;;;;;;11.57;5.13;;;;;;;;;;5052162;28;20228;-73
2021/10/20 13:18:38;;;;;;;10.33;5.77;;;;;;;;;;5052941;28;20215;-72
2021/10/20 13:21:04;;;;;;;8.03;5.63;;;;;;;;;;5053728;28;20685;-72
2021/10/20 13:23:34;;;;;;;10.30;5.90;;;;;;;;;;5052652;28;20237;-72
2021/10/20 13:26:02;;;;;;;10.13;5.83;;;;;;;;;;5054323;28;20260;-72
2021/10/20 13:28:29;;;;;;;7.90;6.47;;;;;;;;;;5055464;28;20672;-72
2021/10/20 13:30:57;;;;;;;8.17;5.97;;;;;;;;;;5052024;28;20264;-73
2021/10/20 13:33:23;;;;;;;9.60;6.97;;;;;;;;;;5052840;28;20210;-73
2021/10/20 13:35:49;;;;;;;7.70;6.80;;;;;;;;;;5055719;28;20217;-73
2021/10/20 13:38:20;;;;;;;10.67;5.53;;;;;;;;;;5052245;28;20695;-72
2021/10/20 13:40:47;;;;;;;8.63;5.47;;;;;;;;;;5054324;28;20213;-72
2021/10/20 13:43:13;;;;;;;8.43;5.50;;;;;;;;;;5052615;28;20279;-74
2021/10/20 13:45:40;;;;;;;9.00;5.93;;;;;;;;;;5053755;28;20244;-74
2021/10/20 13:48:10;;;;;;;8.27;5.20;;;;;;;;;;5053188;28;20565;-74
2021/10/20 13:50:37;;;;;;;10.87;5.43;;;;;;;;;;5054654;28;20229;-75
2021/10/20 13:53:03;;;;;;;8.40;4.80;;;;;;;;;;5052386;28;20694;-75
2021/10/20 13:55:30;;;;;;;9.47;5.13;;;;;;;;;;5052144;28;20735;-72
2021/10/20 13:57:57;;;;;;;10.50;4.80;;;;;;;;;;5054459;28;20216;-75
2021/10/20 14:00:24;;;;;;;12.13;5.00;;;;;;;;;;5053860;28;20264;-75
2021/10/20 14:02:51;;;;;;;10.00;4.50;;;;;;;;;;5053692;28;20209;-74
2021/10/20 14:05:20;;;;;;;9.17;4.53;;;;;;;;;;5052274;28;20791;-72
2021/10/20 14:07:46;;;;;;;11.77;4.00;;;;;;;;;;5055541;28;20205;-74
2021/10/20 14:10:13;;;;;;;15.70;4.90;;;;;;;;;;5052776;28;20302;-73
2021/10/20 14:12:39;;;;;;;17.47;4.77;;;;;;;;;;5050322;28;20596;-72
2021/10/20 14:15:07;;;;;;;8.40;3.90;;;;;;;;;;5054790;28;20233;-73
2021/10/20 14:17:34;;;;;;;14.70;3.90;;;;;;;;;;5054098;28;20628;-72
2021/10/20 14:20:02;;;;;;;11.87;3.93;;;;;;;;;;5053484;28;20218;-72
2021/10/20 14:22:30;;;;;;;11.00;3.50;;;;;;;;;;5051940;28;20206;-73
2021/10/20 14:24:57;;;;;;;9.70;2.87;;;;;;;;;;5050898;28;20233;-73
2021/10/20 14:27:24;;;;;;;11.63;3.80;;;;;;;;;;5051617;28;20279;-73
2021/10/20 14:29:51;;;;;;;19.20;5.37;;;;;;;;;;5053567;28;20744;-72